Terminal Aerodrome Forecast
Issued by NWS

Home | Current Version | Previous Version | Text Only | Print | Product List | Glossary On
Versions: 1 2 3 4 5 6 7 8 9 10 11 12 13 14 15 16 17 18
000
FTUS43 KGRR 311140
TAFAZO
TAF
KAZO 311140Z 3112/0112 01004KT 3SM BR OVC004
     FM311330 01005KT 5SM BR OVC015
     FM311500 36006KT P6SM VCSH OVC025
     FM311700 35008KT P6SM VCSH BKN040
     FM312000 34009KT P6SM SCT040
     FM010000 35005KT P6SM SKC=

USA.gov is the U.S. government's official web portal to all federal, state and local government web resources and services.